createdAt,value
2018-07-06T00:00:37.202Z,15.72
2018-07-06T00:01:46.364Z,15.76
2018-07-06T00:02:55.285Z,15.7
2018-07-06T00:04:03.933Z,15.65
2018-07-06T00:05:12.576Z,15.7
2018-07-06T00:06:21.219Z,15.66
2018-07-06T00:07:29.869Z,15.55
2018-07-06T00:08:38.776Z,15.63
2018-07-06T00:09:47.424Z,15.62
2018-07-06T00:10:56.120Z,15.62
2018-07-06T00:12:04.714Z,15.52
2018-07-06T00:13:13.895Z,15.51
2018-07-06T00:14:22.550Z,15.55
2018-07-06T00:15:31.190Z,15.55
2018-07-06T00:16:39.834Z,15.55
2018-07-06T00:17:48.742Z,15.59
2018-07-06T00:18:57.390Z,15.52
2018-07-06T00:20:06.046Z,15.57
2018-07-06T00:21:14.691Z,15.5
2018-07-06T00:22:23.597Z,15.5
2018-07-06T00:23:32.243Z,15.45
2018-07-06T00:24:40.895Z,15.36
2018-07-06T00:25:49.535Z,15.41
2018-07-06T00:26:58.183Z,15.47
2018-07-06T00:28:06.827Z,15.44
2018-07-06T00:29:15.487Z,15.37
2018-07-06T00:30:24.393Z,15.41
2018-07-06T00:31:33.040Z,15.43
2018-07-06T00:32:41.947Z,15.35
2018-07-06T00:33:50.589Z,15.36
2018-07-06T00:34:59.245Z,15.35
2018-07-06T00:36:08.148Z,15.29
2018-07-06T00:37:16.796Z,15.35
2018-07-06T00:38:25.438Z,15.29
2018-07-06T00:39:34.090Z,15.26
2018-07-06T00:40:42.732Z,15.23
2018-07-06T00:41:51.380Z,15.29
2018-07-06T00:43:00.029Z,15.27
2018-07-06T00:44:08.946Z,15.26
2018-07-06T00:45:17.589Z,15.19
2018-07-06T00:46:26.237Z,15.26
2018-07-06T00:47:34.872Z,15.26
2018-07-06T00:48:43.800Z,15.18
2018-07-06T00:49:52.433Z,15.23
2018-07-06T00:51:01.080Z,15.18
2018-07-06T00:52:09.989Z,15.11
2018-07-06T00:53:18.889Z,15.23
2018-07-06T00:54:27.805Z,15.14
2018-07-06T00:55:36.447Z,15.17
2018-07-06T00:56:45.102Z,15.18
2018-07-06T00:57:53.740Z,15.3
2018-07-06T00:59:02.392Z,15.26
2018-07-06T01:00:11.029Z,15.23
2018-07-06T01:01:19.951Z,15.26
2018-07-06T01:02:28.593Z,15.27
2018-07-06T01:03:37.765Z,15.25
2018-07-06T01:04:46.410Z,15.26
2018-07-06T01:05:55.061Z,15.29
2018-07-06T01:07:03.707Z,15.37
2018-07-06T01:08:12.348Z,15.35
2018-07-06T01:09:20.989Z,15.35
2018-07-06T01:10:29.632Z,15.41
2018-07-06T01:11:38.285Z,15.3
2018-07-06T01:12:47.188Z,15.44
2018-07-06T01:13:55.841Z,15.45
2018-07-06T01:15:04.479Z,15.39
2018-07-06T01:16:13.136Z,15.41
2018-07-06T01:17:21.777Z,15.47
2018-07-06T01:18:30.427Z,15.57
2018-07-06T01:19:39.320Z,15.54
2018-07-06T01:20:47.977Z,15.59
2018-07-06T01:21:56.621Z,15.48
2018-07-06T01:23:05.269Z,15.51
2018-07-06T01:24:13.908Z,15.54
2018-07-06T01:25:22.560Z,15.55
2018-07-06T01:26:31.215Z,15.6
2018-07-06T01:27:39.861Z,15.66
2018-07-06T01:28:48.506Z,15.65
2018-07-06T01:29:57.406Z,15.67
2018-07-06T01:31:06.334Z,15.76
2018-07-06T01:32:15.505Z,15.8
2018-07-06T01:33:24.418Z,15.78
2018-07-06T01:34:33.055Z,15.91
2018-07-06T01:35:41.702Z,15.88
2018-07-06T01:36:50.343Z,15.94
2018-07-06T01:37:58.986Z,15.9
2018-07-06T01:39:07.657Z,15.85
2018-07-06T01:40:16.287Z,15.88
2018-07-06T01:41:24.929Z,15.88
2018-07-06T01:42:33.568Z,15.87
2018-07-06T01:43:42.216Z,15.96
2018-07-06T01:44:50.871Z,16
2018-07-06T01:45:59.777Z,15.92
2018-07-06T01:47:08.695Z,16.02
2018-07-06T01:48:17.333Z,16
2018-07-06T01:49:25.987Z,16
2018-07-06T01:50:34.627Z,16.03
2018-07-06T01:51:43.282Z,16.08
2018-07-06T01:52:52.184Z,16.12
2018-07-06T01:54:00.836Z,16.18
2018-07-06T01:55:09.478Z,16.13
2018-07-06T01:56:18.137Z,16.17
2018-07-06T01:57:27.041Z,16.18
2018-07-06T01:58:35.690Z,16.16
2018-07-06T01:59:44.334Z,16.22
2018-07-06T02:00:52.989Z,16.28
2018-07-06T02:02:01.635Z,16.26
2018-07-06T02:03:10.279Z,16.24
2018-07-06T02:04:18.918Z,16.29
2018-07-06T02:05:27.565Z,16.22
2018-07-06T02:06:36.219Z,16.29
2018-07-06T02:07:44.862Z,16.31
2018-07-06T02:08:53.512Z,16.28
2018-07-06T02:10:02.423Z,16.24
2018-07-06T02:11:11.077Z,16.32
2018-07-06T02:12:19.720Z,16.32
2018-07-06T02:13:28.372Z,16.32
2018-07-06T02:14:37.008Z,16.36
2018-07-06T02:15:45.664Z,16.32
2018-07-06T02:16:54.309Z,16.31
2018-07-06T02:18:02.958Z,16.37
2018-07-06T02:19:11.858Z,16.36
2018-07-06T02:20:20.774Z,16.39
2018-07-06T02:21:29.422Z,16.4
2018-07-06T02:22:38.071Z,16.31
2018-07-06T02:23:46.722Z,16.47
2018-07-06T02:24:55.622Z,16.4
2018-07-06T02:26:04.543Z,16.39
2018-07-06T02:27:13.187Z,16.46
2018-07-06T02:28:21.839Z,16.4
2018-07-06T02:29:30.474Z,16.41
2018-07-06T02:30:39.129Z,16.41
2018-07-06T02:31:48.030Z,16.5
2018-07-06T02:32:56.684Z,16.4
2018-07-06T02:34:05.585Z,16.46
2018-07-06T02:35:15.028Z,16.47
2018-07-06T02:36:23.939Z,16.47
2018-07-06T02:37:32.592Z,16.43
2018-07-06T02:38:41.238Z,16.43
2018-07-06T02:39:49.884Z,16.5
2018-07-06T02:40:58.530Z,16.54
2018-07-06T02:42:07.175Z,16.51
2018-07-06T02:43:15.832Z,16.57
2018-07-06T02:44:24.479Z,16.58
2018-07-06T02:45:33.133Z,16.59
2018-07-06T02:46:42.040Z,16.59
2018-07-06T02:47:50.701Z,16.66
2018-07-06T02:48:59.611Z,16.58
2018-07-06T02:50:08.545Z,16.66
2018-07-06T02:51:17.193Z,16.65
2018-07-06T02:52:25.845Z,16.49
2018-07-06T02:53:34.757Z,16.61
2018-07-06T02:54:43.669Z,16.74
2018-07-06T02:55:52.319Z,16.68
2018-07-06T02:57:00.967Z,16.66
2018-07-06T02:58:09.616Z,16.66
2018-07-06T02:59:18.525Z,16.65
2018-07-06T03:00:27.444Z,16.69
2018-07-06T03:01:36.395Z,16.69
2018-07-06T03:02:45.669Z,16.59
2018-07-06T03:03:54.557Z,16.59
2018-07-06T03:05:03.351Z,16.72
2018-07-06T03:06:12.089Z,16.64
2018-07-06T03:07:21.192Z,16.65
2018-07-06T03:08:29.841Z,16.65
2018-07-06T03:09:38.496Z,16.77
2018-07-06T03:10:47.144Z,16.66
2018-07-06T03:11:55.789Z,16.69
2018-07-06T03:13:04.709Z,16.68
2018-07-06T03:14:13.362Z,16.65
2018-07-06T03:15:22.006Z,16.66
2018-07-06T03:16:30.651Z,16.65
2018-07-06T03:17:39.296Z,16.65
2018-07-06T03:18:48.207Z,16.62
2018-07-06T03:19:56.861Z,16.68
2018-07-06T03:21:05.514Z,16.69
2018-07-06T03:22:14.168Z,16.73
2018-07-06T03:23:23.070Z,16.69
2018-07-06T03:24:31.986Z,16.77
2018-07-06T03:25:40.635Z,16.69
2018-07-06T03:26:49.282Z,16.74
2018-07-06T03:27:58.359Z,16.79
2018-07-06T03:29:06.954Z,16.73
2018-07-06T03:30:15.867Z,16.8
2018-07-06T03:31:24.776Z,16.73
2018-07-06T03:32:33.684Z,16.84
2018-07-06T03:33:42.338Z,16.79
2018-07-06T03:34:50.983Z,16.89
2018-07-06T03:35:59.632Z,16.86
2018-07-06T03:37:08.281Z,16.8
2018-07-06T03:38:16.922Z,16.84
2018-07-06T03:39:25.829Z,16.84
2018-07-06T03:40:34.736Z,16.82
2018-07-06T03:41:43.385Z,16.89
2018-07-06T03:42:52.030Z,16.82
2018-07-06T03:44:00.677Z,16.89
2018-07-06T03:45:09.331Z,16.84
2018-07-06T03:46:17.984Z,17.01
2018-07-06T03:47:26.626Z,16.98
2018-07-06T03:48:35.276Z,16.98
2018-07-06T03:49:44.191Z,16.91
2018-07-06T03:50:52.840Z,16.91
2018-07-06T03:52:01.486Z,16.83
2018-07-06T03:53:10.130Z,16.99
2018-07-06T03:54:18.778Z,16.94
2018-07-06T03:55:27.422Z,16.95
2018-07-06T03:56:36.073Z,16.99
2018-07-06T03:57:44.717Z,17.04
2018-07-06T03:58:53.365Z,16.97
2018-07-06T04:00:02.014Z,17.01
2018-07-06T04:01:10.694Z,16.99
2018-07-06T04:02:19.568Z,16.95
2018-07-06T04:03:28.214Z,16.94
2018-07-06T04:04:36.856Z,17.01
2018-07-06T04:05:45.506Z,16.98
2018-07-06T04:06:54.151Z,16.98
2018-07-06T04:08:02.799Z,17.07
2018-07-06T04:09:11.455Z,17.04
2018-07-06T04:10:20.456Z,17.04
2018-07-06T04:11:29.103Z,17.01
2018-07-06T04:12:37.751Z,17.01
2018-07-06T04:13:46.407Z,17.02
2018-07-06T04:14:55.047Z,17.07
2018-07-06T04:16:03.764Z,17.01
2018-07-06T04:17:12.338Z,17.01
2018-07-06T04:18:20.989Z,16.97
2018-07-06T04:19:29.631Z,17.05
2018-07-06T04:20:38.277Z,17.01
2018-07-06T04:21:46.923Z,17.04
2018-07-06T04:22:55.573Z,16.99
2018-07-06T04:24:04.746Z,17.07
2018-07-06T04:25:13.392Z,17.02
2018-07-06T04:26:22.329Z,17.1
2018-07-06T04:27:30.950Z,17.14
2018-07-06T04:28:39.593Z,17.16
2018-07-06T04:29:48.242Z,17.12
2018-07-06T04:30:56.884Z,17.16
2018-07-06T04:32:05.529Z,17.14
2018-07-06T04:33:14.180Z,17.13
2018-07-06T04:34:22.822Z,17.09
2018-07-06T04:35:31.475Z,17.07
2018-07-06T04:36:40.112Z,17.05
2018-07-06T04:37:49.032Z,17.04
2018-07-06T04:38:57.716Z,17.04
2018-07-06T04:40:06.323Z,17.04
2018-07-06T04:41:14.963Z,16.98
2018-07-06T04:42:23.880Z,17.07
2018-07-06T04:43:32.523Z,17.05
2018-07-06T04:44:41.435Z,17.04
2018-07-06T04:45:50.336Z,17.04
2018-07-06T04:46:58.984Z,17.04
2018-07-06T04:48:07.636Z,17.04
2018-07-06T04:49:16.285Z,17.09
2018-07-06T04:50:24.932Z,17.09
2018-07-06T04:51:33.571Z,17.13
2018-07-06T04:52:42.220Z,17.14
2018-07-06T04:53:50.862Z,17.12
2018-07-06T04:54:59.517Z,17.14
2018-07-06T04:56:08.160Z,17.19
2018-07-06T04:57:17.073Z,17.17
2018-07-06T04:58:25.717Z,17.19
2018-07-06T04:59:34.372Z,17.22
2018-07-06T05:00:43.016Z,17.17
2018-07-06T05:01:51.659Z,17.2
2018-07-06T05:03:00.303Z,17.23
2018-07-06T05:04:08.961Z,17.34
2018-07-06T05:05:17.612Z,17.22
2018-07-06T05:06:26.515Z,17.24
2018-07-06T05:07:35.161Z,17.14
2018-07-06T05:08:43.802Z,17.22
2018-07-06T05:09:52.458Z,17.2
2018-07-06T05:11:01.100Z,17.12
2018-07-06T05:12:10.013Z,17.14
2018-07-06T05:13:18.658Z,17.2
2018-07-06T05:14:27.811Z,17.2
2018-07-06T05:15:36.454Z,17.34
2018-07-06T05:16:45.446Z,17.3
2018-07-06T05:17:54.005Z,17.24
2018-07-06T05:19:02.655Z,17.24
2018-07-06T05:20:11.299Z,17.28
2018-07-06T05:21:19.951Z,17.17
2018-07-06T05:22:28.594Z,17.27
2018-07-06T05:23:37.230Z,17.23
2018-07-06T05:24:45.881Z,17.27
2018-07-06T05:25:54.530Z,17.3
2018-07-06T05:27:03.179Z,17.3
2018-07-06T05:28:11.816Z,17.3
2018-07-06T05:29:20.466Z,17.35
2018-07-06T05:30:29.112Z,17.3
2018-07-06T05:31:37.769Z,17.3
2018-07-06T05:32:46.418Z,17.28
2018-07-06T05:33:55.060Z,17.28
2018-07-06T05:35:03.712Z,17.28
2018-07-06T05:36:12.348Z,17.3
2018-07-06T05:37:21.272Z,17.24
2018-07-06T05:38:29.918Z,17.32
2018-07-06T05:39:38.564Z,17.34
2018-07-06T05:40:47.201Z,17.35
2018-07-06T05:41:55.851Z,17.37
2018-07-06T05:43:04.505Z,17.35
2018-07-06T05:44:13.159Z,17.3
2018-07-06T05:45:21.808Z,17.42
2018-07-06T05:46:30.447Z,17.42
2018-07-06T05:47:39.093Z,17.41
2018-07-06T05:48:47.735Z,17.39
2018-07-06T05:49:56.390Z,17.41
2018-07-06T05:51:05.029Z,17.44
2018-07-06T05:52:13.942Z,17.46
2018-07-06T05:53:22.585Z,17.46
2018-07-06T05:54:31.245Z,17.39
2018-07-06T05:55:39.883Z,17.53
2018-07-06T05:56:48.533Z,17.53
2018-07-06T05:57:57.179Z,17.49
2018-07-06T05:59:05.834Z,17.49
2018-07-06T06:00:14.478Z,17.54
2018-07-06T06:01:23.385Z,17.65
2018-07-06T06:02:32.032Z,17.6
2018-07-06T06:03:40.677Z,17.68
2018-07-06T06:04:49.333Z,17.66
2018-07-06T06:05:57.976Z,17.71
2018-07-06T06:07:06.629Z,17.8
2018-07-06T06:08:15.274Z,17.79
2018-07-06T06:09:23.945Z,17.8
2018-07-06T06:10:32.586Z,17.86
2018-07-06T06:11:41.237Z,17.76
2018-07-06T06:12:49.878Z,17.91
2018-07-06T06:13:58.802Z,18
2018-07-06T06:15:07.979Z,17.94
2018-07-06T06:16:16.629Z,18.06
2018-07-06T06:17:25.534Z,18.08
2018-07-06T06:18:34.305Z,18.08
2018-07-06T06:19:42.836Z,18.24
2018-07-06T06:20:51.483Z,18.19
2018-07-06T06:22:00.411Z,18.19
2018-07-06T06:23:09.048Z,18.27
2018-07-06T06:24:17.700Z,18.27
2018-07-06T06:25:26.351Z,18.28
2018-07-06T06:26:35.008Z,18.36
2018-07-06T06:27:43.915Z,18.37
2018-07-06T06:28:52.848Z,18.46
2018-07-06T06:30:01.492Z,18.43
2018-07-06T06:31:10.147Z,18.48
2018-07-06T06:32:18.789Z,18.67
2018-07-06T06:33:27.543Z,18.64
2018-07-06T06:34:36.085Z,18.57
2018-07-06T06:35:44.738Z,18.57
2018-07-06T06:36:53.383Z,18.63
2018-07-06T06:38:02.035Z,18.64
2018-07-06T06:39:10.679Z,18.66
2018-07-06T06:40:19.329Z,18.7
2018-07-06T06:41:28.245Z,18.71
2018-07-06T06:42:36.894Z,18.81
2018-07-06T06:43:45.550Z,18.85
2018-07-06T06:44:54.196Z,18.83
2018-07-06T06:46:02.841Z,18.94
2018-07-06T06:47:11.488Z,19.09
2018-07-06T06:48:20.136Z,19.07
2018-07-06T06:49:28.790Z,19.11
2018-07-06T06:50:37.432Z,19.15
2018-07-06T06:51:46.079Z,19.12
2018-07-06T06:52:54.741Z,19.17
2018-07-06T06:54:03.376Z,19.15
2018-07-06T06:55:12.028Z,19.15
2018-07-06T06:56:20.682Z,19.27
2018-07-06T06:57:29.601Z,19.24
2018-07-06T06:58:38.252Z,19.22
2018-07-06T06:59:46.895Z,19.32
2018-07-06T07:00:55.864Z,19.34
2018-07-06T07:02:04.849Z,19.27
2018-07-06T07:03:13.501Z,19.32
2018-07-06T07:04:22.408Z,19.27
2018-07-06T07:05:31.056Z,19.32
2018-07-06T07:06:39.970Z,19.37
2018-07-06T07:07:49.070Z,19.32
2018-07-06T07:08:57.678Z,19.27
2018-07-06T07:10:06.603Z,19.35
2018-07-06T07:11:15.245Z,19.39
2018-07-06T07:12:24.160Z,19.38
2018-07-06T07:13:32.809Z,19.29
2018-07-06T07:14:41.456Z,19.3
2018-07-06T07:15:50.100Z,19.32
2018-07-06T07:16:58.748Z,19.27
2018-07-06T07:18:07.668Z,19.35
2018-07-06T07:19:16.320Z,19.22
2018-07-06T07:20:24.970Z,19.26
2018-07-06T07:21:33.616Z,19.26
2018-07-06T07:22:42.268Z,19.32
2018-07-06T07:23:50.916Z,19.47
2018-07-06T07:24:59.566Z,19.41
2018-07-06T07:26:08.739Z,19.42
2018-07-06T07:27:17.393Z,19.34
2018-07-06T07:28:26.040Z,19.39
2018-07-06T07:29:34.694Z,19.49
2018-07-06T07:30:43.333Z,19.48
2018-07-06T07:31:51.986Z,19.47
2018-07-06T07:33:00.640Z,19.48
2018-07-06T07:34:09.559Z,19.48
2018-07-06T07:35:18.210Z,19.52
2018-07-06T07:36:26.846Z,19.57
2018-07-06T07:37:35.509Z,19.6
2018-07-06T07:38:44.145Z,19.63
2018-07-06T07:39:52.805Z,19.71
2018-07-06T07:41:01.445Z,19.74
2018-07-06T07:42:10.097Z,19.75
2018-07-06T07:43:19.012Z,19.75
2018-07-06T07:44:27.668Z,19.78
2018-07-06T07:45:36.311Z,19.81
2018-07-06T07:46:44.960Z,19.94
2018-07-06T07:47:53.603Z,19.93
2018-07-06T07:49:02.260Z,20.02
2018-07-06T07:50:11.172Z,20.11
2018-07-06T07:51:20.092Z,20.17
2018-07-06T07:52:28.739Z,20.02
2018-07-06T07:53:37.388Z,20.12
2018-07-06T07:54:46.048Z,20.11
2018-07-06T07:55:54.688Z,20.04
2018-07-06T07:57:03.343Z,20.15
2018-07-06T07:58:12.243Z,20.32
2018-07-06T07:59:20.904Z,20.32
2018-07-06T08:00:30.102Z,20.3
2018-07-06T08:01:38.725Z,20.34
2018-07-06T08:02:47.294Z,20.52
2018-07-06T08:03:55.953Z,20.53
2018-07-06T08:05:04.599Z,20.82
2018-07-06T08:06:13.249Z,20.9
2018-07-06T08:07:22.148Z,20.9
2018-07-06T08:08:30.800Z,21.04
2018-07-06T08:09:39.453Z,21.22
2018-07-06T08:10:48.369Z,21.23
2018-07-06T08:11:57.031Z,21.35
2018-07-06T08:13:05.669Z,21.4
2018-07-06T08:14:14.323Z,21.35
2018-07-06T08:15:23.239Z,21.43
2018-07-06T08:16:32.161Z,21.37
2018-07-06T08:17:40.802Z,21.26
2018-07-06T08:18:49.455Z,21.29
2018-07-06T08:19:58.102Z,21.26
2018-07-06T08:21:06.760Z,21.25
2018-07-06T08:22:15.663Z,21.33
2018-07-06T08:23:24.313Z,21.5
2018-07-06T08:24:32.964Z,21.54
2018-07-06T08:25:41.625Z,21.43
2018-07-06T08:26:50.272Z,21.43
2018-07-06T08:27:58.919Z,21.37
2018-07-06T08:29:07.573Z,21.26
2018-07-06T08:30:16.486Z,21.23
2018-07-06T08:31:25.407Z,21.17
2018-07-06T08:32:34.057Z,21.15
2018-07-06T08:33:42.703Z,21.14
2018-07-06T08:34:51.348Z,21.13
2018-07-06T08:36:00.005Z,20.92
2018-07-06T08:37:08.658Z,20.75
2018-07-06T08:38:17.569Z,20.75
2018-07-06T08:39:26.263Z,20.73
2018-07-06T08:40:34.874Z,20.8
2018-07-06T08:41:43.523Z,20.89
2018-07-06T08:42:52.178Z,21.1
2018-07-06T08:44:00.824Z,21.23
2018-07-06T08:45:09.480Z,21.38
2018-07-06T08:46:18.661Z,21.44
2018-07-06T08:47:27.314Z,21.56
2018-07-06T08:48:36.227Z,21.53
2018-07-06T08:49:44.879Z,21.68
2018-07-06T08:50:53.526Z,21.59
2018-07-06T08:52:02.176Z,21.59
2018-07-06T08:53:10.831Z,21.6
2018-07-06T08:54:19.475Z,21.68
2018-07-06T08:55:28.128Z,21.69
2018-07-06T08:56:36.780Z,21.78
2018-07-06T08:57:45.435Z,21.92
2018-07-06T08:58:54.661Z,21.83
2018-07-06T09:00:03.313Z,21.92
2018-07-06T09:01:11.964Z,21.97
2018-07-06T09:02:20.619Z,22
2018-07-06T09:03:29.634Z,21.94
2018-07-06T09:04:38.821Z,22
2018-07-06T09:05:47.491Z,22.03
2018-07-06T09:06:56.142Z,22.12
2018-07-06T09:08:04.824Z,22.19
2018-07-06T09:09:13.476Z,22.31
2018-07-06T09:10:22.127Z,22.41
2018-07-06T09:11:31.036Z,22.44
2018-07-06T09:12:39.694Z,22.59
2018-07-06T09:13:48.603Z,22.67
2018-07-06T09:14:57.254Z,22.73
2018-07-06T09:16:05.899Z,22.71
2018-07-06T09:17:14.556Z,22.73
2018-07-06T09:18:23.203Z,22.7
2018-07-06T09:19:31.932Z,22.58
2018-07-06T09:20:40.507Z,22.58
2018-07-06T09:21:49.161Z,22.7
2018-07-06T09:22:57.827Z,22.59
2018-07-06T09:24:06.536Z,22.61
2018-07-06T09:25:15.152Z,22.58
2018-07-06T09:26:24.118Z,22.63
2018-07-06T09:27:32.715Z,22.62
2018-07-06T09:28:41.364Z,22.71
2018-07-06T09:29:50.012Z,22.55
2018-07-06T09:30:58.669Z,22.68
2018-07-06T09:32:07.321Z,22.68
2018-07-06T09:33:15.974Z,22.65
2018-07-06T09:34:24.883Z,22.71
2018-07-06T09:35:33.540Z,22.71
2018-07-06T09:36:42.191Z,22.74
2018-07-06T09:37:50.845Z,22.81
2018-07-06T09:38:59.497Z,22.71
2018-07-06T09:40:08.150Z,22.74
2018-07-06T09:41:16.803Z,22.68
2018-07-06T09:42:25.456Z,22.68
2018-07-06T09:43:34.109Z,22.89
2018-07-06T09:44:43.023Z,23.06
2018-07-06T09:45:51.675Z,23.32
2018-07-06T09:47:00.335Z,23.26
2018-07-06T09:48:09.256Z,23.39
2018-07-06T09:49:17.904Z,23.52
2018-07-06T09:50:26.552Z,23.52
2018-07-06T09:51:35.200Z,23.48
2018-07-06T09:52:43.856Z,23.59
2018-07-06T09:53:52.504Z,23.58
2018-07-06T09:55:01.162Z,23.47
2018-07-06T09:56:10.072Z,23.37
2018-07-06T09:57:19.264Z,23.33
2018-07-06T09:58:27.913Z,23.32
2018-07-06T09:59:36.573Z,23.26
2018-07-06T10:00:45.216Z,23.25
2018-07-06T10:01:53.872Z,23.33
2018-07-06T10:03:02.530Z,23.29
2018-07-06T10:04:11.447Z,23.21
2018-07-06T10:05:20.094Z,23.29
2018-07-06T10:06:29.011Z,23.29
2018-07-06T10:07:37.665Z,23.18
2018-07-06T10:08:46.320Z,23.21
2018-07-06T10:09:55.001Z,23.25
2018-07-06T10:11:03.771Z,23.28
2018-07-06T10:12:12.273Z,23.26
2018-07-06T10:13:20.922Z,23.51
2018-07-06T10:14:29.575Z,23.54
2018-07-06T10:15:38.221Z,23.56
2018-07-06T10:16:47.140Z,23.66
2018-07-06T10:17:55.792Z,23.66
2018-07-06T10:19:04.715Z,23.62
2018-07-06T10:20:13.369Z,23.63
2018-07-06T10:21:22.015Z,23.64
2018-07-06T10:22:30.670Z,23.73
2018-07-06T10:23:39.322Z,23.74
2018-07-06T10:24:47.977Z,23.79
2018-07-06T10:25:56.630Z,23.79
2018-07-06T10:27:05.290Z,23.84
2018-07-06T10:28:13.935Z,23.64
2018-07-06T10:29:22.597Z,23.56
2018-07-06T10:30:31.239Z,23.55
2018-07-06T10:31:39.895Z,23.49
2018-07-06T10:32:48.546Z,23.55
2018-07-06T10:33:57.312Z,23.56
2018-07-06T10:35:05.856Z,23.55
2018-07-06T10:36:14.502Z,23.7
2018-07-06T10:37:23.151Z,23.79
2018-07-06T10:38:31.802Z,23.76
2018-07-06T10:39:40.489Z,23.76
2018-07-06T10:40:49.112Z,23.79
2018-07-06T10:41:57.770Z,23.77
2018-07-06T10:43:06.413Z,23.86
2018-07-06T10:44:15.073Z,23.96
2018-07-06T10:45:23.719Z,24.04
2018-07-06T10:46:32.420Z,24.03
2018-07-06T10:47:41.021Z,24.13
2018-07-06T10:48:49.681Z,24.06
2018-07-06T10:49:58.334Z,24.01
2018-07-06T10:51:06.988Z,24.01
2018-07-06T10:52:15.896Z,24.07
2018-07-06T10:53:24.555Z,24.09
2018-07-06T10:54:33.211Z,24.1
2018-07-06T10:55:41.866Z,24.24
2018-07-06T10:56:50.520Z,24.28
2018-07-06T10:57:59.426Z,24.32
2018-07-06T10:59:08.082Z,24.31
2018-07-06T11:00:16.730Z,24.41
2018-07-06T11:01:25.394Z,24.41
2018-07-06T11:02:34.034Z,24.25
2018-07-06T11:03:42.692Z,24.32
2018-07-06T11:04:51.342Z,24.44
2018-07-06T11:05:59.994Z,24.53
2018-07-06T11:07:08.639Z,24.58
2018-07-06T11:08:17.299Z,24.63
2018-07-06T11:09:25.960Z,24.75
2018-07-06T11:10:34.620Z,24.77
2018-07-06T11:11:43.271Z,24.78
2018-07-06T11:12:51.918Z,24.84
2018-07-06T11:14:00.566Z,24.75
2018-07-06T11:15:09.216Z,24.81
2018-07-06T11:16:17.881Z,24.92
2018-07-06T11:17:26.548Z,24.99
2018-07-06T11:18:35.184Z,24.93
2018-07-06T11:19:43.829Z,24.85
2018-07-06T11:20:52.495Z,24.92
2018-07-06T11:22:01.144Z,24.89
2018-07-06T11:23:09.800Z,24.77
2018-07-06T11:24:18.732Z,24.78
2018-07-06T11:25:27.402Z,24.79
2018-07-06T11:26:36.033Z,24.85
2018-07-06T11:27:44.683Z,25
2018-07-06T11:28:53.337Z,24.93
2018-07-06T11:30:01.988Z,24.94
2018-07-06T11:31:10.903Z,24.97
2018-07-06T11:32:19.548Z,24.96
2018-07-06T11:33:28.205Z,24.92
2018-07-06T11:34:36.857Z,25.04
2018-07-06T11:35:45.511Z,25.09
2018-07-06T11:36:54.165Z,25.11
2018-07-06T11:38:02.919Z,25.26
2018-07-06T11:39:11.472Z,25.14
2018-07-06T11:40:20.126Z,25.22
2018-07-06T11:41:29.047Z,25.24
2018-07-06T11:42:37.695Z,25.12
2018-07-06T11:43:46.352Z,25.26
2018-07-06T11:44:55.433Z,25.29
2018-07-06T11:46:04.021Z,25.41
2018-07-06T11:47:12.671Z,25.43
2018-07-06T11:48:21.331Z,25.31
2018-07-06T11:49:29.984Z,25.36
2018-07-06T11:50:38.640Z,25.29
2018-07-06T11:51:47.297Z,25.36
2018-07-06T11:52:55.949Z,25.29
2018-07-06T11:54:04.597Z,25.25
2018-07-06T11:55:13.251Z,25.39
2018-07-06T11:56:21.907Z,25.44
2018-07-06T11:57:30.553Z,25.46
2018-07-06T11:58:39.205Z,25.49
2018-07-06T11:59:47.858Z,25.58
2018-07-06T12:00:56.514Z,25.54
2018-07-06T12:02:05.184Z,25.55
2018-07-06T12:03:13.822Z,25.49
2018-07-06T12:04:22.687Z,25.34
2018-07-06T12:05:31.125Z,25.33
2018-07-06T12:06:39.787Z,25.31
2018-07-06T12:07:48.435Z,25.36
2018-07-06T12:08:57.094Z,25.39
2018-07-06T12:10:05.750Z,25.41
2018-07-06T12:11:14.675Z,25.34
2018-07-06T12:12:23.325Z,25.33
2018-07-06T12:13:32.247Z,25.4
2018-07-06T12:14:40.898Z,25.4
2018-07-06T12:15:49.814Z,25.43
2018-07-06T12:16:58.552Z,25.51
2018-07-06T12:18:07.206Z,25.41
2018-07-06T12:19:16.153Z,25.58
2018-07-06T12:20:25.095Z,25.7
2018-07-06T12:21:34.002Z,25.77
2018-07-06T12:22:42.663Z,25.96
2018-07-06T12:23:51.304Z,26.18
2018-07-06T12:24:59.961Z,26.23
2018-07-06T12:26:08.621Z,26.16
2018-07-06T12:27:17.278Z,26.15
2018-07-06T12:28:25.933Z,26.07
2018-07-06T12:29:34.596Z,26.15
2018-07-06T12:30:43.314Z,26.33
2018-07-06T12:31:51.962Z,26.34
2018-07-06T12:33:00.625Z,26.3
2018-07-06T12:34:09.270Z,26.22
2018-07-06T12:35:17.928Z,26.23
2018-07-06T12:36:26.608Z,26.13
2018-07-06T12:37:35.241Z,26.16
2018-07-06T12:38:43.886Z,26.15
2018-07-06T12:39:52.803Z,26.03
2018-07-06T12:41:01.717Z,26.11
2018-07-06T12:42:10.960Z,26.11
2018-07-06T12:43:19.610Z,26.22
2018-07-06T12:44:28.261Z,26.07
2018-07-06T12:45:37.176Z,26.22
2018-07-06T12:46:46.092Z,26.26
2018-07-06T12:47:54.750Z,26.3
2018-07-06T12:49:03.480Z,26.45
2018-07-06T12:50:12.141Z,26.68
2018-07-06T12:51:20.786Z,26.68
2018-07-06T12:52:29.451Z,26.86
2018-07-06T12:53:38.110Z,26.83
2018-07-06T12:54:46.768Z,26.76
2018-07-06T12:55:55.413Z,26.78
2018-07-06T12:57:04.076Z,26.68
2018-07-06T12:58:13.057Z,26.59
2018-07-06T12:59:21.660Z,26.74
2018-07-06T13:00:30.322Z,26.73
2018-07-06T13:01:39.261Z,26.67
2018-07-06T13:02:47.936Z,26.6
2018-07-06T13:03:56.615Z,26.45
2018-07-06T13:05:05.303Z,26.59
2018-07-06T13:06:13.968Z,26.53
2018-07-06T13:07:22.643Z,26.44
2018-07-06T13:08:31.293Z,26.34
2018-07-06T13:09:40.232Z,26.33
2018-07-06T13:10:49.142Z,26.45
2018-07-06T13:11:57.799Z,26.44
2018-07-06T13:13:06.460Z,26.42
2018-07-06T13:14:15.137Z,26.51
2018-07-06T13:15:23.783Z,26.45
2018-07-06T13:16:32.443Z,26.41
2018-07-06T13:17:41.299Z,26.52
2018-07-06T13:18:49.961Z,26.39
2018-07-06T13:19:59.035Z,26.41
2018-07-06T13:21:08.063Z,26.56
2018-07-06T13:22:16.983Z,26.6
2018-07-06T13:23:25.644Z,26.73
2018-07-06T13:24:34.806Z,26.88
2018-07-06T13:25:43.468Z,26.91
2018-07-06T13:26:52.116Z,27.07
2018-07-06T13:28:00.782Z,27.19
2018-07-06T13:29:09.425Z,27.23
2018-07-06T13:30:18.096Z,27.2
2018-07-06T13:31:26.739Z,27.22
2018-07-06T13:32:35.401Z,27.2
2018-07-06T13:33:44.084Z,27.3
2018-07-06T13:34:53.010Z,27.22
2018-07-06T13:36:01.666Z,27.26
2018-07-06T13:37:10.604Z,27.22
2018-07-06T13:38:19.530Z,27.28
2018-07-06T13:39:28.182Z,27.28
2018-07-06T13:40:36.834Z,27.22
2018-07-06T13:41:45.528Z,27.22
2018-07-06T13:42:54.151Z,27.2
2018-07-06T13:44:02.797Z,27.28
2018-07-06T13:45:11.719Z,27.35
2018-07-06T13:46:20.364Z,27.28
2018-07-06T13:47:29.025Z,27.37
2018-07-06T13:48:37.674Z,27.29
2018-07-06T13:49:46.336Z,27.23
2018-07-06T13:50:54.981Z,27.29
2018-07-06T13:52:03.908Z,27.44
2018-07-06T13:53:12.559Z,27.48
2018-07-06T13:54:21.215Z,27.53
2018-07-06T13:55:29.861Z,27.47
2018-07-06T13:56:38.790Z,27.47
2018-07-06T13:57:47.449Z,27.38
2018-07-06T13:58:56.135Z,27.4
2018-07-06T14:00:04.765Z,27.38
2018-07-06T14:01:13.409Z,27.28
2018-07-06T14:02:22.066Z,27.19
2018-07-06T14:03:30.720Z,27.15
2018-07-06T14:04:39.381Z,27.03
2018-07-06T14:05:48.369Z,27.04
2018-07-06T14:06:57.360Z,26.97
2018-07-06T14:08:06.012Z,26.89
2018-07-06T14:09:14.675Z,26.79
2018-07-06T14:10:23.580Z,26.73
2018-07-06T14:11:32.235Z,26.71
2018-07-06T14:12:40.886Z,26.56
2018-07-06T14:13:49.549Z,26.53
2018-07-06T14:14:58.199Z,26.44
2018-07-06T14:16:06.851Z,26.37
2018-07-06T14:17:15.503Z,26.3
2018-07-06T14:18:24.153Z,26.26
2018-07-06T14:19:32.850Z,26.27
2018-07-06T14:20:41.467Z,26.19
2018-07-06T14:21:50.119Z,26.26
2018-07-06T14:22:58.766Z,26.18
2018-07-06T14:24:07.424Z,26.26
2018-07-06T14:25:16.354Z,26.34
2018-07-06T14:26:25.537Z,26.36
2018-07-06T14:27:34.184Z,26.49
2018-07-06T14:28:42.842Z,26.36
2018-07-06T14:29:51.490Z,26.45
2018-07-06T14:31:00.146Z,26.63
2018-07-06T14:32:08.793Z,26.67
2018-07-06T14:33:17.451Z,26.71
2018-07-06T14:34:26.105Z,26.73
2018-07-06T14:35:34.762Z,26.73
2018-07-06T14:36:43.418Z,26.82
2018-07-06T14:37:52.069Z,26.83
2018-07-06T14:39:00.720Z,26.88
2018-07-06T14:40:09.640Z,26.83
2018-07-06T14:41:18.299Z,26.82
2018-07-06T14:42:26.947Z,26.82
2018-07-06T14:43:35.599Z,26.81
2018-07-06T14:44:44.252Z,26.85
2018-07-06T14:45:52.911Z,26.81
2018-07-06T14:47:01.559Z,26.79
2018-07-06T14:48:10.215Z,26.83